Mirada, California
Current Conditions -  °F | °C
As of 4:53 PM on Tuesday 25 Nov 2014 (Local Time) from KFUL Reporting Station
Clear Clear  
Wind Chill: 74°   Ceiling: Unl
Heat Index: 74°   Visibility: 10mi
Dew Point: 17°   Wind: 3mph
Humidity: 12%   Direction: 290°WNW
Pressure: 30.25"   Gusts: NA
Location:  33.9021°N, 118.01°W
Report Text: KFUL 260053Z 29003KT 10SM CLR 23/M08 A3025 RMK AO2 SLP241 T02331083
Loading
Personal Weather Stations






























Interactive Weather Map New forecast layout! Learn more

10-Day Weather Forecast

Advertisements
Track Severe Weather on mobile